sensor_id;sensor_type;location;lat;lon;timestamp;pressure;altitude;pressure_sealevel;temperature;humidity
83631;BME280;73593;52.134;5.426;2023-12-20T00:01:11;101646.34;;;4.97;93.37
83631;BME280;73593;52.134;5.426;2023-12-20T00:03:38;101642.03;;;4.96;93.22
83631;BME280;73593;52.134;5.426;2023-12-20T00:06:08;101640.41;;;4.93;93.68
83631;BME280;73593;52.134;5.426;2023-12-20T00:08:35;101627.38;;;4.92;93.45
83631;BME280;73593;52.134;5.426;2023-12-20T00:11:09;101622.16;;;4.90;93.22
83631;BME280;73593;52.134;5.426;2023-12-20T00:13:38;101616.22;;;4.87;93.43
83631;BME280;73593;52.134;5.426;2023-12-20T00:16:05;101626.81;;;4.83;93.66
83631;BME280;73593;52.134;5.426;2023-12-20T00:18:31;101624.28;;;4.82;93.25
83631;BME280;73593;52.134;5.426;2023-12-20T00:21:00;101618.31;;;4.78;93.74
83631;BME280;73593;52.134;5.426;2023-12-20T00:23:29;101621.09;;;4.75;93.32
83631;BME280;73593;52.134;5.426;2023-12-20T00:25:56;101625.56;;;4.73;93.25
83631;BME280;73593;52.134;5.426;2023-12-20T00:28:23;101616.94;;;4.70;93.29
83631;BME280;73593;52.134;5.426;2023-12-20T00:30:52;101618.81;;;4.68;93.62
83631;BME280;73593;52.134;5.426;2023-12-20T00:33:21;101625.94;;;4.64;93.20
83631;BME280;73593;52.134;5.426;2023-12-20T00:35:49;101628.72;;;4.61;93.46
83631;BME280;73593;52.134;5.426;2023-12-20T00:38:18;101626.19;;;4.58;93.33
83631;BME280;73593;52.134;5.426;2023-12-20T00:40:44;101623.72;;;4.55;93.51
83631;BME280;73593;52.134;5.426;2023-12-20T00:43:13;101622.00;;;4.54;93.47
83631;BME280;73593;52.134;5.426;2023-12-20T00:45:42;101626.47;;;4.52;93.55
83631;BME280;73593;52.134;5.426;2023-12-20T00:48:09;101621.41;;;4.47;93.74
83631;BME280;73593;52.134;5.426;2023-12-20T00:50:36;101619.78;;;4.45;93.45
83631;BME280;73593;52.134;5.426;2023-12-20T00:53:03;101620.81;;;4.41;93.37
83631;BME280;73593;52.134;5.426;2023-12-20T00:55:29;101613.19;;;4.36;93.60
83631;BME280;73593;52.134;5.426;2023-12-20T00:57:56;101613.28;;;4.33;93.39
83631;BME280;73593;52.134;5.426;2023-12-20T01:00:22;101626.56;;;4.28;93.92
83631;BME280;73593;52.134;5.426;2023-12-20T01:02:49;101622.16;;;4.30;94.00
83631;BME280;73593;52.134;5.426;2023-12-20T01:05:18;101622.34;;;4.26;93.47
83631;BME280;73593;52.134;5.426;2023-12-20T01:07:45;101613.63;;;4.25;93.69
83631;BME280;73593;52.134;5.426;2023-12-20T01:10:13;101608.44;;;4.24;93.43
83631;BME280;73593;52.134;5.426;2023-12-20T01:12:42;101602.31;;;4.23;94.04
83631;BME280;73593;52.134;5.426;2023-12-20T01:15:12;101610.19;;;4.23;93.75
83631;BME280;73593;52.134;5.426;2023-12-20T01:17:38;101599.84;;;4.20;93.43
83631;BME280;73593;52.134;5.426;2023-12-20T01:20:06;101604.31;;;4.18;94.11
83631;BME280;73593;52.134;5.426;2023-12-20T01:22:32;101607.13;;;4.14;93.95
83631;BME280;73593;52.134;5.426;2023-12-20T01:25:02;101612.53;;;4.09;93.69
83631;BME280;73593;52.134;5.426;2023-12-20T01:27:29;101625.53;;;4.12;93.75
83631;BME280;73593;52.134;5.426;2023-12-20T01:29:57;101621.84;;;4.16;93.70
83631;BME280;73593;52.134;5.426;2023-12-20T01:32:26;101635.53;;;4.23;94.23
83631;BME280;73593;52.134;5.426;2023-12-20T01:34:55;101629.28;;;4.27;94.07
83631;BME280;73593;52.134;5.426;2023-12-20T01:37:29;101631.81;;;4.28;93.95
83631;BME280;73593;52.134;5.426;2023-12-20T01:39:56;101622.06;;;4.32;93.65
83631;BME280;73593;52.134;5.426;2023-12-20T01:42:23;101625.38;;;4.37;94.09
83631;BME280;73593;52.134;5.426;2023-12-20T01:44:49;101626.03;;;4.42;93.83
83631;BME280;73593;52.134;5.426;2023-12-20T01:47:16;101624.09;;;4.46;93.61
83631;BME280;73593;52.134;5.426;2023-12-20T01:49:43;101610.16;;;4.45;93.68
83631;BME280;73593;52.134;5.426;2023-12-20T01:52:10;101611.91;;;4.45;93.37
83631;BME280;73593;52.134;5.426;2023-12-20T01:54:44;101614.47;;;4.46;93.38
83631;BME280;73593;52.134;5.426;2023-12-20T01:57:14;101609.22;;;4.46;93.68
83631;BME280;73593;52.134;5.426;2023-12-20T01:59:41;101617.00;;;4.48;93.75
83631;BME280;73593;52.134;5.426;2023-12-20T02:02:08;101611.72;;;4.49;93.49
83631;BME280;73593;52.134;5.426;2023-12-20T02:04:37;101614.38;;;4.48;93.66
83631;BME280;73593;52.134;5.426;2023-12-20T02:07:04;101619.63;;;4.48;93.60
83631;BME280;73593;52.134;5.426;2023-12-20T02:09:31;101613.63;;;4.46;93.33
83631;BME280;73593;52.134;5.426;2023-12-20T02:11:58;101610.16;;;4.45;93.79
83631;BME280;73593;52.134;5.426;2023-12-20T02:14:29;101620.53;;;4.48;93.47
83631;BME280;73593;52.134;5.426;2023-12-20T02:16:59;101612.50;;;4.51;93.50
83631;BME280;73593;52.134;5.426;2023-12-20T02:19:25;101607.19;;;4.53;93.82
83631;BME280;73593;52.134;5.426;2023-12-20T02:22:05;101607.16;;;4.54;93.38
83631;BME280;73593;52.134;5.426;2023-12-20T02:24:32;101604.53;;;4.54;93.44
83631;BME280;73593;52.134;5.426;2023-12-20T02:26:59;101606.25;;;4.54;93.58
83631;BME280;73593;52.134;5.426;2023-12-20T02:29:30;101611.50;;;4.54;93.67
83631;BME280;73593;52.134;5.426;2023-12-20T02:31:57;101604.44;;;4.56;93.56
83631;BME280;73593;52.134;5.426;2023-12-20T02:34:24;101601.81;;;4.56;93.81
83631;BME280;73593;52.134;5.426;2023-12-20T02:36:51;101596.59;;;4.56;93.84
83631;BME280;73593;52.134;5.426;2023-12-20T02:39:20;101600.81;;;4.58;93.44
83631;BME280;73593;52.134;5.426;2023-12-20T02:41:48;101599.88;;;4.61;93.05
83631;BME280;73593;52.134;5.426;2023-12-20T02:44:14;101595.47;;;4.62;93.13
83631;BME280;73593;52.134;5.426;2023-12-20T02:46:41;101591.91;;;4.63;93.52
83631;BME280;73593;52.134;5.426;2023-12-20T02:49:10;101585.75;;;4.64;93.16
83631;BME280;73593;52.134;5.426;2023-12-20T02:51:37;101586.53;;;4.66;93.25
83631;BME280;73593;52.134;5.426;2023-12-20T02:54:09;101584.75;;;4.66;93.46
83631;BME280;73593;52.134;5.426;2023-12-20T02:56:37;101580.50;;;4.64;93.12
83631;BME280;73593;52.134;5.426;2023-12-20T02:59:06;101578.94;;;4.59;93.38
83631;BME280;73593;52.134;5.426;2023-12-20T03:01:41;101573.75;;;4.58;93.03
83631;BME280;73593;52.134;5.426;2023-12-20T03:04:09;101571.00;;;4.61;93.50
83631;BME280;73593;52.134;5.426;2023-12-20T03:06:36;101572.44;;;4.68;93.48
83631;BME280;73593;52.134;5.426;2023-12-20T03:09:05;101567.84;;;4.73;93.39
83631;BME280;73593;52.134;5.426;2023-12-20T03:11:31;101570.19;;;4.79;93.35
83631;BME280;73593;52.134;5.426;2023-12-20T03:13:58;101575.50;;;4.78;93.27
83631;BME280;73593;52.134;5.426;2023-12-20T03:16:25;101572.88;;;4.78;93.09
83631;BME280;73593;52.134;5.426;2023-12-20T03:18:52;101573.66;;;4.80;93.23
83631;BME280;73593;52.134;5.426;2023-12-20T03:21:18;101569.91;;;4.85;92.89
83631;BME280;73593;52.134;5.426;2023-12-20T03:23:45;101562.06;;;4.85;92.87
83631;BME280;73593;52.134;5.426;2023-12-20T03:26:11;101555.06;;;4.84;93.15
83631;BME280;73593;52.134;5.426;2023-12-20T03:28:43;101539.34;;;4.84;92.92
83631;BME280;73593;52.134;5.426;2023-12-20T03:31:12;101539.97;;;4.90;92.94
83631;BME280;73593;52.134;5.426;2023-12-20T03:33:39;101545.09;;;4.93;92.64
83631;BME280;73593;52.134;5.426;2023-12-20T03:36:06;101552.97;;;4.93;92.36
83631;BME280;73593;52.134;5.426;2023-12-20T03:38:32;101545.75;;;4.98;92.70
83631;BME280;73593;52.134;5.426;2023-12-20T03:41:01;101551.59;;;5.03;92.53
83631;BME280;73593;52.134;5.426;2023-12-20T03:43:30;101556.84;;;5.03;92.56
83631;BME280;73593;52.134;5.426;2023-12-20T03:45:57;101555.81;;;5.07;92.28
83631;BME280;73593;52.134;5.426;2023-12-20T03:48:25;101553.81;;;5.12;92.06
83631;BME280;73593;52.134;5.426;2023-12-20T03:50:52;101558.16;;;5.13;92.21
83631;BME280;73593;52.134;5.426;2023-12-20T03:53:20;101564.25;;;5.13;92.13
83631;BME280;73593;52.134;5.426;2023-12-20T03:55:49;101551.31;;;5.09;91.56
83631;BME280;73593;52.134;5.426;2023-12-20T03:58:16;101556.72;;;5.06;91.97
83631;BME280;73593;52.134;5.426;2023-12-20T04:00:48;101558.50;;;5.05;92.00
83631;BME280;73593;52.134;5.426;2023-12-20T04:03:15;101551.31;;;5.09;91.75
83631;BME280;73593;52.134;5.426;2023-12-20T04:05:41;101550.34;;;5.11;91.52
83631;BME280;73593;52.134;5.426;2023-12-20T04:08:11;101550.28;;;5.13;91.50
83631;BME280;73593;52.134;5.426;2023-12-20T04:10:38;101543.41;;;5.10;91.75
83631;BME280;73593;52.134;5.426;2023-12-20T04:13:07;101557.16;;;5.16;91.84
83631;BME280;73593;52.134;5.426;2023-12-20T04:15:35;101554.31;;;5.20;91.54
83631;BME280;73593;52.134;5.426;2023-12-20T04:18:02;101539.41;;;5.21;91.61
83631;BME280;73593;52.134;5.426;2023-12-20T04:20:29;101536.75;;;5.22;91.22
83631;BME280;73593;52.134;5.426;2023-12-20T04:22:58;101540.22;;;5.23;91.31
83631;BME280;73593;52.134;5.426;2023-12-20T04:25:25;101541.81;;;5.25;91.16
83631;BME280;73593;52.134;5.426;2023-12-20T04:27:51;101539.00;;;5.30;91.17
83631;BME280;73593;52.134;5.426;2023-12-20T04:30:20;101537.91;;;5.34;91.50
83631;BME280;73593;52.134;5.426;2023-12-20T04:32:47;101545.66;;;5.37;90.57
83631;BME280;73593;52.134;5.426;2023-12-20T04:35:16;101553.34;;;5.40;90.62
83631;BME280;73593;52.134;5.426;2023-12-20T04:37:45;101548.91;;;5.42;90.85
83631;BME280;73593;52.134;5.426;2023-12-20T04:40:16;101551.44;;;5.44;90.57
83631;BME280;73593;52.134;5.426;2023-12-20T04:42:45;101546.13;;;5.45;90.75
83631;BME280;73593;52.134;5.426;2023-12-20T04:45:12;101544.91;;;5.52;90.30
83631;BME280;73593;52.134;5.426;2023-12-20T04:47:41;101541.19;;;5.56;90.35
83631;BME280;73593;52.134;5.426;2023-12-20T04:50:13;101551.72;;;5.56;89.55
83631;BME280;73593;52.134;5.426;2023-12-20T04:52:41;101544.53;;;5.60;90.15
83631;BME280;73593;52.134;5.426;2023-12-20T04:55:08;101540.16;;;5.60;89.63
83631;BME280;73593;52.134;5.426;2023-12-20T04:57:35;101526.94;;;5.62;89.80
83631;BME280;73593;52.134;5.426;2023-12-20T05:00:02;101533.75;;;5.66;89.52
83631;BME280;73593;52.134;5.426;2023-12-20T05:02:29;101527.56;;;5.67;90.06
83631;BME280;73593;52.134;5.426;2023-12-20T05:04:58;101534.38;;;5.71;89.57
83631;BME280;73593;52.134;5.426;2023-12-20T05:07:27;101528.09;;;5.74;89.64
83631;BME280;73593;52.134;5.426;2023-12-20T05:09:56;101532.44;;;5.75;89.54
83631;BME280;73593;52.134;5.426;2023-12-20T05:12:25;101537.59;;;5.76;89.20
83631;BME280;73593;52.134;5.426;2023-12-20T05:14:52;101534.06;;;5.77;89.42
83631;BME280;73593;52.134;5.426;2023-12-20T05:17:19;101535.59;;;5.81;89.25
83631;BME280;73593;52.134;5.426;2023-12-20T05:19:49;101529.41;;;5.82;89.40
83631;BME280;73593;52.134;5.426;2023-12-20T05:22:16;101534.66;;;5.82;89.29
83631;BME280;73593;52.134;5.426;2023-12-20T05:24:46;101532.03;;;5.82;89.00
83631;BME280;73593;52.134;5.426;2023-12-20T05:27:12;101543.41;;;5.83;89.41
83631;BME280;73593;52.134;5.426;2023-12-20T05:29:39;101536.22;;;5.86;88.93
83631;BME280;73593;52.134;5.426;2023-12-20T05:32:06;101541.41;;;5.88;88.61
83631;BME280;73593;52.134;5.426;2023-12-20T05:34:37;101543.19;;;5.87;88.96
83631;BME280;73593;52.134;5.426;2023-12-20T05:37:04;101535.22;;;5.89;88.56
83631;BME280;73593;52.134;5.426;2023-12-20T05:39:33;101534.34;;;5.88;88.91
83631;BME280;73593;52.134;5.426;2023-12-20T05:41:59;101537.84;;;5.89;88.51
83631;BME280;73593;52.134;5.426;2023-12-20T05:44:26;101535.16;;;5.90;88.20
83631;BME280;73593;52.134;5.426;2023-12-20T05:46:52;101535.94;;;5.92;88.39
83631;BME280;73593;52.134;5.426;2023-12-20T05:49:21;101533.41;;;5.91;88.16
83631;BME280;73593;52.134;5.426;2023-12-20T05:51:48;101536.03;;;5.91;88.33
83631;BME280;73593;52.134;5.426;2023-12-20T05:54:16;101525.56;;;5.89;88.51
83631;BME280;73593;52.134;5.426;2023-12-20T05:56:43;101542.13;;;5.91;88.24
83631;BME280;73593;52.134;5.426;2023-12-20T05:59:11;101536.88;;;5.91;87.86
83631;BME280;73593;52.134;5.426;2023-12-20T06:01:38;101531.53;;;5.93;87.67
83631;BME280;73593;52.134;5.426;2023-12-20T06:04:07;101527.06;;;5.95;87.77
83631;BME280;73593;52.134;5.426;2023-12-20T06:06:43;101527.94;;;5.96;87.82
83631;BME280;73593;52.134;5.426;2023-12-20T06:09:10;101534.09;;;5.95;87.86
83631;BME280;73593;52.134;5.426;2023-12-20T06:11:39;101534.09;;;5.95;87.84
83631;BME280;73593;52.134;5.426;2023-12-20T06:14:08;101521.78;;;5.95;87.66
83631;BME280;73593;52.134;5.426;2023-12-20T06:16:37;101524.38;;;5.97;87.65
83631;BME280;73593;52.134;5.426;2023-12-20T06:19:07;101524.19;;;6.00;87.94
83631;BME280;73593;52.134;5.426;2023-12-20T06:21:34;101526.75;;;6.01;87.51
83631;BME280;73593;52.134;5.426;2023-12-20T06:24:01;101523.03;;;6.05;87.34
83631;BME280;73593;52.134;5.426;2023-12-20T06:26:28;101525.59;;;6.07;87.08
83631;BME280;73593;52.134;5.426;2023-12-20T06:28:54;101524.69;;;6.08;87.15
83631;BME280;73593;52.134;5.426;2023-12-20T06:31:21;101528.06;;;6.10;87.14
83631;BME280;73593;52.134;5.426;2023-12-20T06:33:48;101533.25;;;6.11;87.11
83631;BME280;73593;52.134;5.426;2023-12-20T06:36:24;101523.44;;;6.15;86.55
83631;BME280;73593;52.134;5.426;2023-12-20T06:38:53;101520.63;;;6.18;86.57
83631;BME280;73593;52.134;5.426;2023-12-20T06:41:19;101522.41;;;6.17;86.81
83631;BME280;73593;52.134;5.426;2023-12-20T06:43:46;101517.25;;;6.16;86.81
83631;BME280;73593;52.134;5.426;2023-12-20T06:46:16;101513.75;;;6.15;86.89
83631;BME280;73593;52.134;5.426;2023-12-20T06:48:44;101512.66;;;6.19;86.80
83631;BME280;73593;52.134;5.426;2023-12-20T06:51:14;101514.38;;;6.21;86.74
83631;BME280;73593;52.134;5.426;2023-12-20T06:53:43;101505.38;;;6.25;86.73
83631;BME280;73593;52.134;5.426;2023-12-20T06:56:11;101507.16;;;6.24;86.90
83631;BME280;73593;52.134;5.426;2023-12-20T06:58:44;101507.34;;;6.21;86.28
83631;BME280;73593;52.134;5.426;2023-12-20T07:01:14;101513.28;;;6.25;86.29
83631;BME280;73593;52.134;5.426;2023-12-20T07:03:42;101498.19;;;6.28;86.28
83631;BME280;73593;52.134;5.426;2023-12-20T07:06:09;101508.63;;;6.30;86.15
83631;BME280;73593;52.134;5.426;2023-12-20T07:08:40;101506.94;;;6.29;86.51
83631;BME280;73593;52.134;5.426;2023-12-20T07:11:09;101505.16;;;6.29;86.18
83631;BME280;73593;52.134;5.426;2023-12-20T07:13:36;101508.63;;;6.30;86.06
83631;BME280;73593;52.134;5.426;2023-12-20T07:16:05;101508.53;;;6.31;86.02
83631;BME280;73593;52.134;5.426;2023-12-20T07:18:32;101508.41;;;6.34;85.87
83631;BME280;73593;52.134;5.426;2023-12-20T07:21:01;101498.72;;;6.35;86.21
83631;BME280;73593;52.134;5.426;2023-12-20T07:23:30;101496.84;;;6.37;85.96
83631;BME280;73593;52.134;5.426;2023-12-20T07:26:04;101499.50;;;6.37;86.16
83631;BME280;73593;52.134;5.426;2023-12-20T07:28:31;101503.81;;;6.38;85.70
83631;BME280;73593;52.134;5.426;2023-12-20T07:31:00;101496.84;;;6.37;85.89
83631;BME280;73593;52.134;5.426;2023-12-20T07:33:32;101498.56;;;6.38;85.79
83631;BME280;73593;52.134;5.426;2023-12-20T07:36:05;101495.06;;;6.37;86.25
83631;BME280;73593;52.134;5.426;2023-12-20T07:38:35;101496.81;;;6.38;86.07
83631;BME280;73593;52.134;5.426;2023-12-20T07:41:02;101488.72;;;6.41;85.95
83631;BME280;73593;52.134;5.426;2023-12-20T07:43:28;101492.28;;;6.40;85.80
83631;BME280;73593;52.134;5.426;2023-12-20T07:46:04;101492.13;;;6.43;85.65
83631;BME280;73593;52.134;5.426;2023-12-20T07:48:30;101503.50;;;6.44;85.67
83631;BME280;73593;52.134;5.426;2023-12-20T07:50:57;101504.28;;;6.46;85.63
83631;BME280;73593;52.134;5.426;2023-12-20T07:53:24;101506.91;;;6.46;85.44
83631;BME280;73593;52.134;5.426;2023-12-20T07:55:55;101508.59;;;6.47;85.73
83631;BME280;73593;52.134;5.426;2023-12-20T07:58:22;101513.78;;;6.49;85.84
83631;BME280;73593;52.134;5.426;2023-12-20T08:01:11;101512.94;;;6.48;85.91
83631;BME280;73593;52.134;5.426;2023-12-20T08:03:40;101515.41;;;6.51;85.76
83631;BME280;73593;52.134;5.426;2023-12-20T08:06:07;101515.31;;;6.53;85.89
83631;BME280;73593;52.134;5.426;2023-12-20T08:08:34;101530.09;;;6.55;86.02
83631;BME280;73593;52.134;5.426;2023-12-20T08:11:03;101537.88;;;6.57;85.97
83631;BME280;73593;52.134;5.426;2023-12-20T08:13:29;101529.22;;;6.55;85.71
83631;BME280;73593;52.134;5.426;2023-12-20T08:15:58;101531.72;;;6.58;86.02
83631;BME280;73593;52.134;5.426;2023-12-20T08:18:28;101524.59;;;6.60;85.51
83631;BME280;73593;52.134;5.426;2023-12-20T08:20:55;101517.53;;;6.60;85.36
83631;BME280;73593;52.134;5.426;2023-12-20T08:23:22;101518.28;;;6.62;85.48
83631;BME280;73593;52.134;5.426;2023-12-20T08:25:52;101525.34;;;6.62;85.50
83631;BME280;73593;52.134;5.426;2023-12-20T08:28:19;101515.75;;;6.61;85.81
83631;BME280;73593;52.134;5.426;2023-12-20T08:30:48;101504.28;;;6.62;85.59
83631;BME280;73593;52.134;5.426;2023-12-20T08:33:17;101515.66;;;6.62;85.41
83631;BME280;73593;52.134;5.426;2023-12-20T08:35:43;101517.31;;;6.65;85.66
83631;BME280;73593;52.134;5.426;2023-12-20T08:38:10;101512.78;;;6.67;85.73
83631;BME280;73593;52.134;5.426;2023-12-20T08:40:37;101511.94;;;6.66;85.63
83631;BME280;73593;52.134;5.426;2023-12-20T08:43:04;101506.59;;;6.68;85.78
83631;BME280;73593;52.134;5.426;2023-12-20T08:45:33;101517.06;;;6.69;85.50
83631;BME280;73593;52.134;5.426;2023-12-20T08:47:59;101509.06;;;6.71;85.41
83631;BME280;73593;52.134;5.426;2023-12-20T08:50:29;101503.81;;;6.71;85.58
83631;BME280;73593;52.134;5.426;2023-12-20T08:52:56;101509.94;;;6.71;85.64
83631;BME280;73593;52.134;5.426;2023-12-20T08:55:23;101504.56;;;6.73;85.67
83631;BME280;73593;52.134;5.426;2023-12-20T08:57:52;101525.81;;;6.70;85.65
83631;BME280;73593;52.134;5.426;2023-12-20T09:00:19;101511.81;;;6.69;86.16
83631;BME280;73593;52.134;5.426;2023-12-20T09:02:50;101511.94;;;6.66;86.32
83631;BME280;73593;52.134;5.426;2023-12-20T09:05:17;101514.81;;;6.62;86.88
83631;BME280;73593;52.134;5.426;2023-12-20T09:07:44;101515.00;;;6.59;87.06
83631;BME280;73593;52.134;5.426;2023-12-20T09:10:11;101511.56;;;6.57;87.42
83631;BME280;73593;52.134;5.426;2023-12-20T09:12:38;101513.34;;;6.56;87.61
83631;BME280;73593;52.134;5.426;2023-12-20T09:15:09;101509.81;;;6.57;87.65
83631;BME280;73593;52.134;5.426;2023-12-20T09:17:36;101507.25;;;6.56;87.86
83631;BME280;73593;52.134;5.426;2023-12-20T09:20:04;101507.34;;;6.54;88.34
83631;BME280;73593;52.134;5.426;2023-12-20T09:22:34;101509.97;;;6.54;87.96
83631;BME280;73593;52.134;5.426;2023-12-20T09:25:01;101509.13;;;6.54;88.18
83631;BME280;73593;52.134;5.426;2023-12-20T09:27:30;101511.66;;;6.55;88.63
83631;BME280;73593;52.134;5.426;2023-12-20T09:29:59;101514.16;;;6.58;88.51
83631;BME280;73593;52.134;5.426;2023-12-20T09:32:26;101495.56;;;6.61;88.58
83631;BME280;73593;52.134;5.426;2023-12-20T09:34:53;101499.72;;;6.65;88.44
83631;BME280;73593;52.134;5.426;2023-12-20T09:37:19;101503.03;;;6.69;87.95
83631;BME280;73593;52.134;5.426;2023-12-20T09:39:46;101503.63;;;6.74;88.11
83631;BME280;73593;52.134;5.426;2023-12-20T09:42:21;101503.41;;;6.79;88.07
83631;BME280;73593;52.134;5.426;2023-12-20T09:44:52;101502.38;;;6.81;87.61
83631;BME280;73593;52.134;5.426;2023-12-20T09:47:19;101512.75;;;6.84;87.76
83631;BME280;73593;52.134;5.426;2023-12-20T09:49:50;101514.19;;;6.90;87.34
83631;BME280;73593;52.134;5.426;2023-12-20T09:52:18;101512.31;;;6.92;87.37
83631;BME280;73593;52.134;5.426;2023-12-20T09:54:45;101507.84;;;6.94;87.23
83631;BME280;73593;52.134;5.426;2023-12-20T09:57:14;101504.88;;;7.00;87.46
83631;BME280;73593;52.134;5.426;2023-12-20T09:59:41;101509.00;;;7.04;86.94
83631;BME280;73593;52.134;5.426;2023-12-20T10:02:12;101500.97;;;7.07;86.66
83631;BME280;73593;52.134;5.426;2023-12-20T10:04:46;101500.69;;;7.12;86.43
83631;BME280;73593;52.134;5.426;2023-12-20T10:07:18;101504.75;;;7.17;86.63
83631;BME280;73593;52.134;5.426;2023-12-20T10:09:47;101511.66;;;7.20;86.08
83631;BME280;73593;52.134;5.426;2023-12-20T10:12:18;101532.53;;;7.23;86.01
83631;BME280;73593;52.134;5.426;2023-12-20T10:14:45;101516.75;;;7.23;86.04
83631;BME280;73593;52.134;5.426;2023-12-20T10:17:12;101514.88;;;7.25;86.30
83631;BME280;73593;52.134;5.426;2023-12-20T10:19:42;101520.06;;;7.26;86.12
83631;BME280;73593;52.134;5.426;2023-12-20T10:22:10;101517.34;;;7.28;85.99
83631;BME280;73593;52.134;5.426;2023-12-20T10:24:36;101523.44;;;7.28;85.83
83631;BME280;73593;52.134;5.426;2023-12-20T10:27:07;101524.28;;;7.29;85.82
83631;BME280;73593;52.134;5.426;2023-12-20T10:29:35;101518.03;;;7.32;85.86
83631;BME280;73593;52.134;5.426;2023-12-20T10:32:24;101500.25;;;7.35;85.86
83631;BME280;73593;52.134;5.426;2023-12-20T10:34:54;101495.56;;;7.40;85.76
83631;BME280;73593;52.134;5.426;2023-12-20T10:37:23;101509.44;;;7.44;85.26
83631;BME280;73593;52.134;5.426;2023-12-20T10:39:54;101502.38;;;7.44;85.56
83631;BME280;73593;52.134;5.426;2023-12-20T10:42:26;101503.22;;;7.45;84.99
83631;BME280;73593;52.134;5.426;2023-12-20T10:44:53;101495.97;;;7.48;84.87
83631;BME280;73593;52.134;5.426;2023-12-20T10:47:24;101508.88;;;7.53;84.66
83631;BME280;73593;52.134;5.426;2023-12-20T10:49:55;101497.25;;;7.57;84.43
83631;BME280;73593;52.134;5.426;2023-12-20T10:52:26;101494.41;;;7.60;84.24
83631;BME280;73593;52.134;5.426;2023-12-20T10:54:57;101488.31;;;7.60;84.26
83631;BME280;73593;52.134;5.426;2023-12-20T10:57:26;101489.94;;;7.62;83.94
83631;BME280;73593;52.134;5.426;2023-12-20T10:59:54;101475.72;;;7.65;83.71
83631;BME280;73593;52.134;5.426;2023-12-20T11:02:22;101480.81;;;7.68;83.52
83631;BME280;73593;52.134;5.426;2023-12-20T11:07:58;101483.00;;;7.75;83.24
83631;BME280;73593;52.134;5.426;2023-12-20T11:10:55;101477.53;;;7.78;83.95
83631;BME280;73593;52.134;5.426;2023-12-20T11:13:22;101477.28;;;7.83;83.88
83631;BME280;73593;52.134;5.426;2023-12-20T11:15:50;101470.91;;;7.87;83.57
83631;BME280;73593;52.134;5.426;2023-12-20T11:18:16;101479.53;;;7.89;83.51
83631;BME280;73593;52.134;5.426;2023-12-20T11:20:43;101478.59;;;7.90;83.46
83631;BME280;73593;52.134;5.426;2023-12-20T11:23:12;101477.66;;;7.91;83.07
83631;BME280;73593;52.134;5.426;2023-12-20T11:25:53;101459.41;;;7.88;83.48
83631;BME280;73593;52.134;5.426;2023-12-20T11:28:24;101450.75;;;7.86;83.34
83631;BME280;73593;52.134;5.426;2023-12-20T11:30:53;101457.72;;;7.87;83.43
83631;BME280;73593;52.134;5.426;2023-12-20T11:33:24;101460.72;;;7.95;82.99
83631;BME280;73593;52.134;5.426;2023-12-20T11:35:58;101452.94;;;8.08;82.77
83631;BME280;73593;52.134;5.426;2023-12-20T11:38:26;101455.88;;;8.18;83.09
83631;BME280;73593;52.134;5.426;2023-12-20T11:40:54;101458.78;;;8.27;83.05
83631;BME280;73593;52.134;5.426;2023-12-20T11:43:35;101442.00;;;8.28;82.64
83631;BME280;73593;52.134;5.426;2023-12-20T11:46:08;101443.78;;;8.28;82.71
83631;BME280;73593;52.134;5.426;2023-12-20T11:48:38;101430.72;;;8.26;82.87
83631;BME280;73593;52.134;5.426;2023-12-20T11:51:12;101436.94;;;8.25;82.35
83631;BME280;73593;52.134;5.426;2023-12-20T11:53:43;101418.38;;;8.27;82.04
83631;BME280;73593;52.134;5.426;2023-12-20T11:56:12;101426.38;;;8.25;82.14
83631;BME280;73593;52.134;5.426;2023-12-20T11:58:44;101426.38;;;8.25;81.62
83631;BME280;73593;52.134;5.426;2023-12-20T12:01:13;101424.69;;;8.24;81.42
83631;BME280;73593;52.134;5.426;2023-12-20T12:03:42;101418.56;;;8.24;80.98
83631;BME280;73593;52.134;5.426;2023-12-20T12:06:09;101421.22;;;8.24;81.77
83631;BME280;73593;52.134;5.426;2023-12-20T12:08:38;101439.56;;;8.25;81.80
83631;BME280;73593;52.134;5.426;2023-12-20T12:11:05;101423.75;;;8.25;81.61
83631;BME280;73593;52.134;5.426;2023-12-20T12:13:31;101434.41;;;8.24;81.62
83631;BME280;73593;52.134;5.426;2023-12-20T12:16:03;101436.94;;;8.25;81.59
83631;BME280;73593;52.134;5.426;2023-12-20T12:18:31;101436.19;;;8.23;81.41
83631;BME280;73593;52.134;5.426;2023-12-20T12:21:01;101434.41;;;8.24;81.77
83631;BME280;73593;52.134;5.426;2023-12-20T12:23:45;101436.94;;;8.25;81.63
83631;BME280;73593;52.134;5.426;2023-12-20T12:26:12;101429.69;;;8.29;81.95
83631;BME280;73593;52.134;5.426;2023-12-20T12:28:42;101428.63;;;8.31;81.17
83631;BME280;73593;52.134;5.426;2023-12-20T12:31:14;101420.72;;;8.31;81.53
83631;BME280;73593;52.134;5.426;2023-12-20T12:33:42;101414.72;;;8.29;81.61
83631;BME280;73593;52.134;5.426;2023-12-20T12:36:10;101408.59;;;8.29;81.80
83631;BME280;73593;52.134;5.426;2023-12-20T12:38:41;101407.72;;;8.28;81.93
83631;BME280;73593;52.134;5.426;2023-12-20T12:41:07;101402.44;;;8.28;81.61
83631;BME280;73593;52.134;5.426;2023-12-20T12:43:34;101404.34;;;8.26;81.53
83631;BME280;73593;52.134;5.426;2023-12-20T12:46:02;101387.88;;;8.23;81.81
83631;BME280;73593;52.134;5.426;2023-12-20T12:48:31;101376.53;;;8.21;81.48
83631;BME280;73593;52.134;5.426;2023-12-20T12:51:00;101391.41;;;8.22;81.41
83631;BME280;73593;52.134;5.426;2023-12-20T12:53:29;101382.59;;;8.23;81.67
83631;BME280;73593;52.134;5.426;2023-12-20T12:55:56;101390.56;;;8.21;81.53
83631;BME280;73593;52.134;5.426;2023-12-20T12:58:22;101387.94;;;8.21;81.84
83631;BME280;73593;52.134;5.426;2023-12-20T13:00:57;101387.09;;;8.21;81.66
83631;BME280;73593;52.134;5.426;2023-12-20T13:03:25;101378.44;;;8.19;81.64
83631;BME280;73593;52.134;5.426;2023-12-20T13:05:54;101374.97;;;8.18;81.74
83631;BME280;73593;52.134;5.426;2023-12-20T13:08:21;101383.81;;;8.17;82.19
83631;BME280;73593;52.134;5.426;2023-12-20T13:10:48;101363.75;;;8.15;82.03